createdAt,value
2019-03-24T00:01:15.022Z,102162.80
2019-03-24T00:03:48.739Z,102157.81
2019-03-24T00:06:22.399Z,102163.95
2019-03-24T00:08:56.388Z,102158.64
2019-03-24T00:11:30.097Z,102165.27
2019-03-24T00:14:03.812Z,102161.58
2019-03-24T00:16:37.660Z,102157.02
2019-03-24T00:19:11.288Z,102159.34
2019-03-24T00:21:45.101Z,102155.73
2019-03-24T00:24:19.622Z,102158.29
2019-03-24T00:26:53.336Z,102157.74
2019-03-24T00:29:27.141Z,102165.19
2019-03-24T00:32:02.693Z,102162.98
2019-03-24T00:34:36.290Z,102162.66
2019-03-24T00:37:09.928Z,102168.30
2019-03-24T00:39:43.788Z,102165.93
2019-03-24T00:42:17.483Z,102178.17
2019-03-24T00:44:54.414Z,102180.88
2019-03-24T00:47:28.129Z,102174.37
2019-03-24T00:50:01.720Z,102173.73
2019-03-24T00:52:35.499Z,102173.06
2019-03-24T00:55:09.918Z,102169.91
2019-03-24T00:57:43.496Z,102170.44
2019-03-24T01:00:20.088Z,102176.80
2019-03-24T01:02:53.692Z,102182.63
2019-03-24T01:05:27.315Z,102183.08
2019-03-24T01:08:01.861Z,102182.20
2019-03-24T01:10:35.694Z,102185.56
2019-03-24T01:13:10.355Z,102185.00
2019-03-24T01:15:48.008Z,102191.84
2019-03-24T01:18:22.840Z,102185.51
2019-03-24T01:20:57.488Z,102193.13
2019-03-24T01:23:31.149Z,102190.47
2019-03-24T01:26:07.089Z,102187.91
2019-03-24T01:28:40.861Z,102185.91
2019-03-24T01:31:14.700Z,102197.27
2019-03-24T01:33:48.506Z,102195.83
2019-03-24T01:36:22.176Z,102192.52
2019-03-24T01:38:56.072Z,102193.08
2019-03-24T01:41:30.008Z,102195.05
2019-03-24T01:44:03.652Z,102200.83
2019-03-24T01:46:37.307Z,102198.22
2019-03-24T01:49:11.045Z,102194.24
2019-03-24T01:51:44.802Z,102190.16
2019-03-24T01:54:18.440Z,102196.17
2019-03-24T01:56:52.095Z,102191.48
2019-03-24T01:59:25.700Z,102185.23
2019-03-24T02:01:59.330Z,102192.19
2019-03-24T02:04:33.068Z,102193.13
2019-03-24T02:07:06.842Z,102193.33
2019-03-24T02:09:40.573Z,102187.08
2019-03-24T02:12:14.444Z,102187.98
2019-03-24T02:14:48.083Z,102181.20
2019-03-24T02:17:21.840Z,102180.66
2019-03-24T02:19:55.539Z,102178.87
2019-03-24T02:22:30.507Z,102178.58
2019-03-24T02:25:04.126Z,102174.66
2019-03-24T02:27:37.830Z,102176.50
2019-03-24T02:30:12.831Z,102181.32
2019-03-24T02:32:46.567Z,102183.03
2019-03-24T02:35:20.140Z,102185.03
2019-03-24T02:37:53.987Z,102189.64
2019-03-24T02:40:27.622Z,102190.09
2019-03-24T02:43:01.202Z,102186.33
2019-03-24T02:45:34.918Z,102188.78
2019-03-24T02:48:08.517Z,102180.32
2019-03-24T02:50:42.178Z,102182.98
2019-03-24T02:53:15.820Z,102179.55
2019-03-24T02:55:49.468Z,102179.55
2019-03-24T02:58:23.102Z,102182.94
2019-03-24T03:00:56.773Z,102191.67
2019-03-24T03:03:30.458Z,102188.98
2019-03-24T03:06:04.185Z,102185.70
2019-03-24T03:08:37.846Z,102183.54
2019-03-24T03:11:11.488Z,102183.24
2019-03-24T03:13:45.193Z,102181.86
2019-03-24T03:16:18.894Z,102174.66
2019-03-24T03:18:52.593Z,102181.61
2019-03-24T03:21:26.287Z,102177.69
2019-03-24T03:23:59.914Z,102167.23
2019-03-24T03:26:33.598Z,102161.39
2019-03-24T03:29:07.449Z,102158.38
2019-03-24T03:31:42.148Z,102157.06
2019-03-24T03:34:15.898Z,102158.28
2019-03-24T03:36:49.590Z,102146.64
2019-03-24T03:39:23.233Z,102152.63
2019-03-24T03:41:56.819Z,102146.21
2019-03-24T03:44:30.438Z,102155.46
2019-03-24T03:47:04.075Z,102151.86
2019-03-24T03:49:37.780Z,102161.11
2019-03-24T03:52:11.492Z,102164.99
2019-03-24T03:54:45.155Z,102164.73
2019-03-24T03:57:18.877Z,102164.68
2019-03-24T03:59:52.520Z,102164.83
2019-03-24T04:02:26.555Z,102168.20
2019-03-24T04:05:00.427Z,102167.08
2019-03-24T04:07:34.258Z,102166.50
2019-03-24T04:10:08.631Z,102161.69
2019-03-24T04:12:42.363Z,102164.47
2019-03-24T04:15:16.230Z,102159.57
2019-03-24T04:17:49.784Z,102162.76
2019-03-24T04:20:23.382Z,102166.72
2019-03-24T04:22:57.060Z,102168.44
2019-03-24T04:25:30.835Z,102163.21
2019-03-24T04:28:04.555Z,102162.81
2019-03-24T04:30:38.176Z,102167.53
2019-03-24T04:33:11.914Z,102163.56
2019-03-24T04:35:45.605Z,102166.58
2019-03-24T04:38:19.303Z,102164.88
2019-03-24T04:40:52.931Z,102164.16
2019-03-24T04:43:26.803Z,102173.30
2019-03-24T04:46:00.417Z,102167.49
2019-03-24T04:48:34.586Z,102170.86
2019-03-24T04:51:08.268Z,102167.17
2019-03-24T04:53:41.973Z,102165.78
2019-03-24T04:56:15.594Z,102161.14
2019-03-24T04:58:51.742Z,102167.53
2019-03-24T05:01:25.401Z,102162.31
2019-03-24T05:03:59.019Z,102167.67
2019-03-24T05:06:32.784Z,102166.86
2019-03-24T05:09:07.014Z,102169.64
2019-03-24T05:11:40.957Z,102168.52
2019-03-24T05:14:14.634Z,102163.93
2019-03-24T05:16:48.353Z,102155.52
2019-03-24T05:19:22.137Z,102164.74
2019-03-24T05:21:55.743Z,102162.68
2019-03-24T05:24:29.383Z,102161.55
2019-03-24T05:27:03.061Z,102166.19
2019-03-24T05:29:36.647Z,102163.67
2019-03-24T05:32:11.264Z,102161.14
2019-03-24T05:34:45.016Z,102157.81
2019-03-24T05:37:18.647Z,102155.93
2019-03-24T05:39:52.282Z,102158.72
2019-03-24T05:42:25.810Z,102155.44
2019-03-24T05:44:59.487Z,102145.41
2019-03-24T05:47:37.144Z,102146.89
2019-03-24T05:50:09.454Z,102148.10
2019-03-24T05:52:44.921Z,102165.14
2019-03-24T05:55:19.502Z,102165.31
2019-03-24T05:57:53.088Z,102167.34
2019-03-24T06:00:26.780Z,102160.25
2019-03-24T06:03:00.497Z,102161.15
2019-03-24T06:05:34.850Z,102156.47
2019-03-24T06:08:08.576Z,102152.55
2019-03-24T06:10:42.253Z,102149.73
2019-03-24T06:13:16.516Z,102152.19
2019-03-24T06:15:50.341Z,102148.31
2019-03-24T06:18:25.369Z,102141.60
2019-03-24T06:20:59.033Z,102142.59
2019-03-24T06:23:34.052Z,102139.33
2019-03-24T06:26:09.855Z,102143.13
2019-03-24T06:28:43.513Z,102145.78
2019-03-24T06:31:17.976Z,102143.57
2019-03-24T06:33:53.111Z,102141.92
2019-03-24T06:36:35.287Z,102136.23
2019-03-24T06:39:12.953Z,102131.66
2019-03-24T06:41:48.373Z,102133.84
2019-03-24T06:44:26.096Z,102143.91
2019-03-24T06:47:03.639Z,102136.92
2019-03-24T06:49:39.643Z,102104.02
2019-03-24T06:52:13.511Z,102140.22
2019-03-24T06:54:47.675Z,102139.66
2019-03-24T06:57:22.848Z,102136.55
2019-03-24T06:59:56.586Z,102140.37
2019-03-24T07:02:30.809Z,102141.78
2019-03-24T07:05:06.063Z,102139.07
2019-03-24T07:07:40.357Z,102133.81
2019-03-24T07:10:15.170Z,102138.90
2019-03-24T07:12:51.401Z,102140.22
2019-03-24T07:15:25.322Z,102138.08
2019-03-24T07:18:08.337Z,102129.20
2019-03-24T07:20:41.731Z,102124.14
2019-03-24T07:23:16.681Z,102124.50
2019-03-24T07:25:56.552Z,102131.70
2019-03-24T07:33:26.337Z,102133.88
2019-03-24T07:36:03.434Z,102133.20
2019-03-24T07:38:47.389Z,102124.14
2019-03-24T07:41:29.866Z,102122.97
2019-03-24T07:44:16.589Z,102117.34
2019-03-24T07:46:54.029Z,102111.34
2019-03-24T07:49:30.161Z,102104.66
2019-03-24T07:52:06.119Z,102109.62
2019-03-24T07:54:40.600Z,102111.61
2019-03-24T07:57:16.380Z,102112.98
2019-03-24T07:59:53.598Z,102113.42
2019-03-24T08:02:32.515Z,102109.53
2019-03-24T08:55:19.940Z,102028.18
2019-03-24T08:58:00.908Z,102024.77
2019-03-24T09:00:38.687Z,102020.13
2019-03-24T09:03:13.527Z,102014.40
2019-03-24T09:05:48.432Z,102013.46
2019-03-24T09:08:24.318Z,102005.81
2019-03-24T09:11:00.387Z,102004.27
2019-03-24T09:13:38.072Z,102007.73
2019-03-24T09:16:12.955Z,102002.66
2019-03-24T09:18:52.947Z,101999.34
2019-03-24T09:21:23.330Z,101993.95
2019-03-24T09:23:56.974Z,101991.63
2019-03-24T09:26:30.796Z,101987.22
2019-03-24T09:29:04.544Z,101985.27
2019-03-24T09:31:38.211Z,101986.64
2019-03-24T09:34:11.956Z,101986.04
2019-03-24T09:36:45.731Z,101987.44
2019-03-24T09:39:19.413Z,101991.42
2019-03-24T09:41:53.553Z,101991.45
2019-03-24T09:44:27.345Z,101989.66
2019-03-24T09:47:00.945Z,101983.75
2019-03-24T09:49:34.723Z,101975.79
2019-03-24T09:52:08.363Z,101977.53
2019-03-24T09:54:42.097Z,101978.48
2019-03-24T09:57:16.007Z,101976.73
2019-03-24T09:59:49.837Z,101963.28
2019-03-24T10:02:23.466Z,101957.47
2019-03-24T10:04:57.172Z,101950.08
2019-03-24T10:07:32.040Z,101940.48
2019-03-24T10:10:05.760Z,101941.38
2019-03-24T10:12:39.528Z,101931.39
2019-03-24T10:15:13.483Z,101931.20
2019-03-24T10:17:47.303Z,101920.30
2019-03-24T10:20:20.975Z,101931.02
2019-03-24T10:22:55.763Z,101923.27
2019-03-24T10:25:29.466Z,101921.31
2019-03-24T10:28:03.148Z,101913.54
2019-03-24T10:30:37.016Z,101911.02
2019-03-24T10:33:10.646Z,101913.78
2019-03-24T10:35:44.662Z,101903.19
2019-03-24T10:38:18.622Z,101900.02
2019-03-24T10:40:52.711Z,101896.92
2019-03-24T10:43:26.658Z,101891.97
2019-03-24T10:46:00.638Z,101887.78
2019-03-24T12:50:08.029Z,101706.62
2019-03-24T12:52:35.779Z,101706.20
2019-03-24T12:55:10.872Z,101698.67
2019-03-24T12:57:45.053Z,101699.08
2019-03-24T13:00:37.506Z,101688.91
2019-03-24T13:03:11.596Z,101693.78
2019-03-24T13:05:45.445Z,101695.52
2019-03-24T13:08:22.323Z,101690.68
2019-03-24T13:10:58.398Z,101688.44
2019-03-24T13:13:32.529Z,101682.68
2019-03-24T13:16:06.470Z,101675.16
2019-03-24T13:18:40.224Z,101676.52
2019-03-24T13:21:13.996Z,101667.67
2019-03-24T13:23:47.745Z,101670.70
2019-03-24T13:26:21.929Z,101665.67
2019-03-24T13:28:56.012Z,101655.83
2019-03-24T13:31:30.456Z,101652.62
2019-03-24T13:34:05.385Z,101642.91
2019-03-24T13:36:40.100Z,101644.73
2019-03-24T13:39:28.900Z,101638.13
2019-03-24T13:42:05.238Z,101639.02
2019-03-24T13:44:39.293Z,101640.16
2019-03-24T13:47:13.247Z,101635.72
2019-03-24T13:49:48.685Z,101625.92
2019-03-24T13:52:22.909Z,101629.25
2019-03-24T13:54:58.606Z,101627.01
2019-03-24T13:57:32.767Z,101622.59
2019-03-24T14:00:07.515Z,101618.41
2019-03-24T14:02:41.556Z,101604.73
2019-03-24T14:05:15.936Z,101600.80
2019-03-24T14:07:49.987Z,101596.42
2019-03-24T14:10:26.990Z,101590.22
2019-03-24T14:13:00.821Z,101587.57
2019-03-24T14:15:41.871Z,101584.91
2019-03-24T14:18:15.924Z,101576.54
2019-03-24T14:20:49.665Z,101578.70
2019-03-24T14:23:23.422Z,101575.20
2019-03-24T14:25:57.385Z,101571.69
2019-03-24T14:28:31.205Z,101573.34
2019-03-24T14:31:05.057Z,101568.92
2019-03-24T14:33:42.206Z,101563.52
2019-03-24T14:36:17.661Z,101563.50
2019-03-24T14:38:57.536Z,101553.38
2019-03-24T14:41:39.090Z,101550.27
2019-03-24T14:44:19.906Z,101546.77
2019-03-24T14:47:00.564Z,101543.28
2019-03-24T14:49:40.553Z,101543.27
2019-03-24T14:52:25.049Z,101535.30
2019-03-24T14:55:07.817Z,101533.03
2019-03-24T14:57:41.860Z,101530.02
2019-03-24T15:00:29.361Z,101527.75
2019-03-24T15:03:14.324Z,101527.73
2019-03-24T15:05:51.891Z,101524.19
2019-03-24T15:08:30.232Z,101517.05
2019-03-24T15:11:06.825Z,101519.64
2019-03-24T15:13:53.833Z,101516.97
2019-03-24T15:16:42.012Z,101511.63
2019-03-24T15:19:23.969Z,101512.93
2019-03-24T15:22:15.388Z,101502.36
2019-03-24T15:25:28.353Z,101503.69
2019-03-24T15:28:21.554Z,101498.41
2019-03-24T15:31:56.070Z,101486.06
2019-03-24T15:34:57.376Z,101486.08
2019-03-24T15:38:07.838Z,101481.23
2019-03-24T15:43:41.037Z,101473.24
2019-03-24T15:46:26.645Z,101486.38
2019-03-24T15:49:34.775Z,101481.97
2019-03-24T15:53:06.347Z,101478.47
2019-03-24T15:55:57.327Z,101472.66
2019-03-24T15:58:52.582Z,101467.34
2019-03-24T16:01:52.099Z,101457.65
2019-03-24T16:04:59.740Z,101461.56
2019-03-24T16:07:34.268Z,101459.71
2019-03-24T16:10:50.019Z,101451.67
2019-03-24T16:13:45.123Z,101450.73
2019-03-24T16:16:43.700Z,101454.16
2019-03-24T16:23:59.283Z,101443.86
2019-03-24T16:27:35.147Z,101448.58
2019-03-24T16:30:29.964Z,101447.61
2019-03-24T16:33:51.261Z,101440.08
2019-03-24T16:43:58.244Z,101429.80
2019-03-24T16:47:08.697Z,101425.39
2019-03-24T16:51:00.844Z,101418.77
2019-03-24T16:57:54.437Z,101416.16
2019-03-24T17:00:42.088Z,101412.13
2019-03-24T17:03:19.231Z,101408.14
2019-03-24T17:05:53.523Z,101402.87
2019-03-24T17:08:29.123Z,101406.96
2019-03-24T17:11:02.951Z,101403.45
2019-03-24T17:14:06.449Z,101405.72
2019-03-24T17:16:44.127Z,101412.26
2019-03-24T17:19:21.179Z,101405.64
2019-03-24T17:22:00.129Z,101394.66
2019-03-24T17:24:45.763Z,101392.05
2019-03-24T17:27:57.570Z,101392.86
2019-03-24T17:31:16.285Z,101400.28
2019-03-24T17:34:11.012Z,101399.80
2019-03-24T17:36:59.717Z,101411.59
2019-03-24T17:39:47.393Z,101401.42
2019-03-24T17:42:25.682Z,101390.37
2019-03-24T17:45:02.897Z,101392.06
2019-03-24T17:47:37.836Z,101391.11
2019-03-24T17:50:19.938Z,101392.78
2019-03-24T17:52:54.804Z,101390.02
2019-03-24T17:55:53.470Z,101391.25
2019-03-24T17:58:40.669Z,101392.11
2019-03-24T18:01:16.981Z,101390.27
2019-03-24T18:04:45.892Z,101389.23
2019-03-24T18:07:09.480Z,101393.85
2019-03-24T18:09:43.659Z,101390.16
2019-03-24T18:12:21.314Z,101385.23
2019-03-24T18:15:14.850Z,101385.66
2019-03-24T18:18:28.610Z,101380.29
2019-03-24T18:21:56.746Z,101379.41
2019-03-24T18:24:43.778Z,101372.65
2019-03-24T18:27:36.639Z,101370.41
2019-03-24T18:30:36.244Z,101375.61
2019-03-24T18:33:28.148Z,101370.27
2019-03-24T18:40:08.498Z,101366.61
2019-03-24T18:42:46.441Z,101362.56
2019-03-24T18:45:23.903Z,101361.20
2019-03-24T18:48:17.575Z,101358.04
2019-03-24T18:54:51.329Z,101359.45
2019-03-24T18:57:35.813Z,101352.33
2019-03-24T19:00:28.812Z,101353.69
2019-03-24T19:03:09.785Z,101348.04
2019-03-24T19:05:52.350Z,101347.16
2019-03-24T19:08:28.111Z,101341.86
2019-03-24T19:11:14.049Z,101334.00
2019-03-24T19:13:58.143Z,101337.88
2019-03-24T19:16:38.646Z,101338.26
2019-03-24T19:19:16.442Z,101343.41
2019-03-24T19:21:54.530Z,101338.49
2019-03-24T19:24:29.284Z,101338.91
2019-03-24T19:27:16.941Z,101340.58
2019-03-24T19:35:14.548Z,101340.50
2019-03-24T19:38:21.280Z,101336.73
2019-03-24T19:41:55.879Z,101333.56
2019-03-24T19:44:33.126Z,101326.91
2019-03-24T19:47:07.599Z,101328.99
2019-03-24T19:49:49.644Z,101324.92
2019-03-24T19:52:52.290Z,101319.63
2019-03-24T19:55:32.315Z,101325.73
2019-03-24T19:58:13.018Z,101324.30
2019-03-24T20:00:47.882Z,101329.97
2019-03-24T20:03:43.545Z,101328.15
2019-03-24T20:06:29.782Z,101322.42
2019-03-24T20:09:09.576Z,101322.42
2019-03-24T20:13:32.721Z,101327.20
2019-03-24T20:15:44.773Z,101315.39
2019-03-24T20:18:23.047Z,101312.72
2019-03-24T20:21:16.056Z,101311.41
2019-03-24T20:23:54.072Z,101305.69
2019-03-24T20:26:42.512Z,101300.39
2019-03-24T20:29:20.223Z,101302.47
2019-03-24T20:32:27.561Z,101295.06
2019-03-24T20:35:12.994Z,101290.66
2019-03-24T20:39:01.615Z,101289.68
2019-03-24T20:42:10.753Z,101285.28
2019-03-24T21:22:00.911Z,101247.23
2019-03-24T21:24:33.986Z,101245.41
2019-03-24T21:27:14.722Z,101246.58
2019-03-24T21:29:55.779Z,101239.46
2019-03-24T21:32:36.583Z,101236.37
2019-03-24T21:36:12.534Z,101234.50
2019-03-24T21:38:50.565Z,101231.74
2019-03-24T21:41:29.359Z,101222.55
2019-03-24T21:44:05.801Z,101218.84
2019-03-24T21:46:43.781Z,101214.39
2019-03-24T21:49:22.096Z,101202.36
2019-03-24T21:52:01.710Z,101205.25
2019-03-24T21:54:42.733Z,101210.66
2019-03-24T21:57:19.868Z,101206.41
2019-03-24T21:59:55.282Z,101210.98
2019-03-24T22:02:34.876Z,101207.27
2019-03-24T22:05:09.441Z,101200.98
2019-03-24T22:07:46.425Z,101207.77
2019-03-24T22:10:20.469Z,101215.88
2019-03-24T22:12:54.480Z,101215.88
2019-03-24T22:15:28.608Z,101203.99
2019-03-24T22:18:04.218Z,101208.23
2019-03-24T22:20:48.400Z,101202.94
2019-03-24T22:23:13.903Z,101199.85
2019-03-24T22:25:47.936Z,101195.81
2019-03-24T22:28:22.002Z,101196.95
2019-03-24T22:30:59.752Z,101189.11
2019-03-24T22:33:33.765Z,101187.98
2019-03-24T22:36:10.068Z,101182.72
2019-03-24T22:38:44.202Z,101174.46
2019-03-24T22:41:22.078Z,101174.53
2019-03-24T22:43:57.884Z,101171.27
2019-03-24T22:46:36.245Z,101167.97
2019-03-24T22:49:10.310Z,101160.44
2019-03-24T22:51:45.735Z,101160.20
2019-03-24T22:54:20.065Z,101159.09
2019-03-24T22:56:55.959Z,101165.85
2019-03-24T22:59:30.749Z,101169.60
2019-03-24T23:02:06.886Z,101171.16
2019-03-24T23:04:41.002Z,101173.94
2019-03-24T23:07:19.572Z,101162.13
2019-03-24T23:09:53.832Z,101161.98
2019-03-24T23:12:29.174Z,101155.76
2019-03-24T23:15:02.948Z,101149.56
2019-03-24T23:17:36.828Z,101150.31
2019-03-24T23:20:13.679Z,101151.50
2019-03-24T23:22:47.521Z,101141.80
2019-03-24T23:25:22.435Z,101145.19
2019-03-24T23:27:58.876Z,101141.95
2019-03-24T23:30:33.256Z,101138.87
2019-03-24T23:33:08.433Z,101133.98
2019-03-24T23:35:42.446Z,101129.48
2019-03-24T23:38:16.468Z,101125.83
2019-03-24T23:40:53.273Z,101120.88
2019-03-24T23:43:28.530Z,101116.70
2019-03-24T23:46:02.380Z,101115.55
2019-03-24T23:48:37.415Z,101113.61
2019-03-24T23:51:11.342Z,101111.75
2019-03-24T23:53:45.139Z,101109.49
2019-03-24T23:56:18.792Z,101108.03
2019-03-24T23:58:52.708Z,101106.17
